Melbourne, FL

4:13 AM EDT on May 06, 2015 (GMT -0400)
Cape Canaveral Air Station Skid Strip | | Change Station
CLOSE
Current Station
Airport
Location: Cocoa Beach,
Elevation: 10 ft
Nearby Weather Stations

Elev 10 ft 28.47 °N, 80.57 °W | Updated 15 minutes ago

Overcast
Overcast
69 °F
Feels Like 69 °F
N
5
Wind Variable Wind from NNW

Today
High -- | Low -- °F
--% Chance of Precip.
Yesterday
High -- | Low -- °F
Precip. -- in
6:38 AM 7:59 PM
Waning Gibbous, 95% visible
Pressure 30.04 in
Visibility 10.0 miles
Clouds Clear
Dew Point 68 °F
Humidity 97%
Rainfall 0.71 in
Snow Depth Not available.
UV 0 out of 12
Pollen 6.20 out of 12
Air Quality Not available.
Flu Activity Local Activity
METAR KXMR 060758Z AUTO 33004KT 10SM CLR 20/20 A3003 RMK AO2 RAE40DZB40 SLP172 P0002 T02040199 $

More Conditions Fewer Conditions

Pressure 30.04 in
Visibility 10.0 miles
Clouds Clear
Dew Point 68 °F
Humidity 97%
Rainfall 0.71 in
Snow Depth Not available.
UV 0 out of 12
Pollen 6.20 out of 12
Air Quality Not available.
Flu Activity Local Activity
METAR KXMR 060758Z AUTO 33004KT 10SM CLR 20/20 A3003 RMK AO2 RAE40DZB40 SLP172 P0002 T02040199 $

More Conditions Fewer Conditions

Nowcast | as of 2:12 am EDT on May 6, 2015

A broad area of low pressure has formed over the northern Bahamas that will drift slowly north through dawn...generating a deep and steady east to northeast breeze across central Florida. Numerous showers and isolated thunderstorms will push onshore... producing periods of moderate to heavy rain over the coastal counties. A few showers will manage to push into the interior counties and produce periods of light to moderate rain. General rainfall will be between one quarter and one half inch with local amounts up to one inch. Additional details...including graphics are available online at: http://www.Srh.NOAA.Gov/mlb/blog.Php

×

10-Day Weather Forecast

Almanac

Astronomy

May. 06, 2015 Rise Set
Actual Time
Civil Twilight
Nautical Twilight
Astronomical Twilight
Moon
Length of Visible Light
Length of Day
Tomorrow will be .
, % of the Moon is Illuminated

Today's Extremes

State Highs State Lows

Community

WunderPhotos

Upload Photos

1,818,851 photos uploaded!

WunderBlogs® & News

Nearby

Air Quality

  Air Quality AQ Index Pollutant
Not available.

Snow Depth

Station Depth Elevation

Earthquake Activity

City Distance Mag. Time & Date
Minimum magnitude displayed is 2.5.

Coastal Water Temperatures

Place Temperature

Stations

Nearby Weather Stations

Station Location Temp. Windchill Dew Point Humidity Wind Precip. Elev Updated Type